Time;durP1;ratioP1;P1;durP2;ratioP2;P2;SDS_P1;SDS_P2;PMS_P1;PMS_P2;Temp;Humidity;BMP_temperature;BMP_pressure;BME280_temperature;BME280_humidity;BME280_pressure;Samples;Min_cycle;Max_cycle;Signal;HPM_P1;HPM_P2
2022/10/11 00:00:07;;;;;;;88.75;31.90;;;;;;;18.96;77.92;100530.22;5107280;27;20055;-76
2022/10/11 00:02:34;;;;;;;96.03;32.75;;;;;;;18.90;78.35;100523.09;5111418;28;20048;-76
2022/10/11 00:05:01;;;;;;;102.13;31.00;;;;;;;18.80;78.17;100510.13;5109786;28;20047;-76
2022/10/11 00:07:28;;;;;;;81.45;31.42;;;;;;;18.92;77.96;100526.41;5106282;28;20054;-75
2022/10/11 00:09:55;;;;;;;91.32;30.05;;;;;;;18.89;78.17;100521.44;5105580;28;20062;-74
2022/10/11 00:12:22;;;;;;;140.07;37.78;;;;;;;18.89;78.08;100524.25;5109361;28;20051;-75
2022/10/11 00:14:48;;;;;;;105.45;32.88;;;;;;;18.84;78.14;100528.13;5108103;28;20055;-75
2022/10/11 00:17:15;;;;;;;85.88;30.25;;;;;;;18.69;78.31;100526.59;5106775;27;20421;-73
2022/10/11 00:19:42;;;;;;;80.65;31.38;;;;;;;18.72;77.99;100519.47;5113090;28;20048;-75
2022/10/11 00:22:09;;;;;;;94.28;31.75;;;;;;;18.78;77.82;100518.13;5110705;28;20063;-74
2022/10/11 00:24:36;;;;;;;219.00;41.50;;;;;;;18.80;78.11;100529.09;5105331;28;20055;-75
2022/10/11 00:27:02;;;;;;;135.15;33.42;;;;;;;18.68;78.04;100510.81;5108963;28;20105;-75
2022/10/11 00:29:29;;;;;;;194.77;41.00;;;;;;;18.74;78.05;100522.00;5110725;28;20152;-74
2022/10/11 00:31:56;;;;;;;183.48;35.00;;;;;;;18.76;78.15;100514.81;5107864;28;20059;-74
2022/10/11 00:34:23;;;;;;;194.90;36.65;;;;;;;18.69;77.90;100509.63;5112973;28;20420;-74
2022/10/11 00:36:50;;;;;;;217.18;35.35;;;;;;;18.40;78.16;100453.00;5111174;28;20047;-74
2022/10/11 00:39:17;;;;;;;159.40;35.83;;;;;;;18.72;78.12;100504.50;5108503;28;20074;-73
2022/10/11 00:41:48;;;;;;;119.43;32.20;;;;;;;18.63;78.11;100499.69;5106945;28;20055;-75
2022/10/11 00:44:16;;;;;;;199.07;38.95;;;;;;;18.67;78.25;100513.97;5110920;28;20516;-74
2022/10/11 00:47:11;;;;;;;243.27;44.88;;;;;;;18.57;78.57;100498.19;5109463;28;20040;-74
2022/10/11 00:49:42;;;;;;;110.30;31.90;;;;;;;18.62;77.86;100498.00;5112386;28;20058;-75
2022/10/11 00:52:32;;;;;;;219.88;42.78;;;;;;;18.63;78.47;100504.47;5106410;28;20059;-75
2022/10/11 00:55:11;;;;;;;;;;;;;;;18.53;78.81;100508.53;5105624;28;20055;-75
2022/10/11 00:57:42;;;;;;;189.65;37.33;;;;;;;18.53;78.09;100500.03;5103059;28;19924;-75
2022/10/11 01:00:12;;;;;;;128.43;34.05;;;;;;;18.58;78.14;100508.31;5110556;28;20048;-76
2022/10/11 01:02:40;;;;;;;145.13;34.85;;;;;;;18.63;78.08;100510.13;5107374;28;20053;-77
2022/10/11 01:05:09;;;;;;;237.07;44.45;;;;;;;18.62;78.12;100500.81;5109957;28;20051;-77
2022/10/11 01:07:54;;;;;;;201.18;43.97;;;;;;;18.61;78.02;100516.16;5110865;28;20122;-79
2022/10/11 01:10:21;;;;;;;119.13;33.97;;;;;;;18.58;78.10;100510.31;5109649;28;20048;-77
2022/10/11 01:13:20;;;;;;;189.07;33.88;;;;;;;18.54;78.37;100507.34;5112207;28;20075;-77
2022/10/11 01:16:03;;;;;;;185.20;37.13;;;;;;;18.49;78.41;100501.84;5101603;28;20051;-77
2022/10/11 01:18:46;;;;;;;130.60;33.30;;;;;;;18.52;77.99;100508.84;5096122;28;20047;-77
2022/10/11 01:21:32;;;;;;;274.25;44.00;;;;;;;18.54;78.06;100509.34;5110392;28;20055;-79
2022/10/11 01:24:06;;;;;;;209.45;40.15;;;;;;;18.48;77.98;100509.50;5107956;28;20047;-75
2022/10/11 01:26:59;;;;;;;107.75;31.80;;;;;;;18.40;78.13;100509.53;5107580;28;20463;-77
2022/10/11 01:29:29;;;;;;;143.45;33.80;;;;;;;18.38;77.50;100514.69;5098506;28;20486;-74
2022/10/11 01:32:18;;;;;;;69.45;29.35;;;;;;;18.14;77.86;100484.94;5109718;28;20100;-76
2022/10/11 01:34:58;;;;;;;106.93;29.87;;;;;;;18.26;77.84;100486.28;5110033;28;20051;-76
2022/10/11 01:37:34;;;;;;;85.78;30.60;;;;;;;18.38;77.57;100512.69;5103510;27;20308;-77
2022/10/11 01:40:11;;;;;;;120.30;30.30;;;;;;;18.36;77.39;100503.72;5105206;28;20040;-77
2022/10/11 01:42:40;;;;;;;103.72;31.55;;;;;;;18.41;77.59;100508.34;5103693;28;20055;-77
2022/10/11 01:45:09;;;;;;;164.45;32.47;;;;;;;18.41;77.40;100502.69;5107163;28;20946;-75
2022/10/11 01:47:37;;;;;;;201.25;38.38;;;;;;;18.36;77.33;100508.50;5108239;28;20055;-76
2022/10/11 01:50:06;;;;;;;194.95;37.45;;;;;;;18.23;77.54;100497.06;5106238;28;20062;-75
2022/10/11 01:52:40;;;;;;;165.93;37.13;;;;;;;18.22;77.32;100498.25;5108689;28;20063;-74
2022/10/11 01:55:22;;;;;;;165.80;36.58;;;;;;;18.22;77.42;100501.06;5107798;28;20510;-75
2022/10/11 01:58:08;;;;;;;107.50;31.88;;;;;;;18.27;77.51;100510.53;5105348;28;20055;-76
2022/10/11 02:00:50;;;;;;;102.47;31.50;;;;;;;18.21;77.44;100499.38;5110433;28;20055;-76
2022/10/11 02:04:06;;;;;;;69.70;29.67;;;;;;;18.20;77.78;100500.56;5113013;28;20051;-76
2022/10/11 02:06:55;;;;;;;60.58;27.60;;;;;;;18.10;77.77;100489.59;5096475;27;20044;-76
2022/10/11 02:09:25;;;;;;;56.03;29.90;;;;;;;18.21;77.16;100502.22;5106911;28;20048;-76
2022/10/11 02:12:01;;;;;;;50.15;31.35;;;;;;;18.13;77.30;100488.94;5109195;28;20048;-75
2022/10/11 02:14:33;;;;;;;60.03;30.60;;;;;;;18.23;77.14;100497.06;5106520;28;20498;-74
2022/10/11 02:17:06;;;;;;;120.63;34.10;;;;;;;18.15;76.98;100475.31;5112418;28;20047;-73
2022/10/11 02:19:44;;;;;;;163.35;38.80;;;;;;;18.20;76.93;100491.25;5111591;28;20051;-75
2022/10/11 02:22:20;;;;;;;125.93;33.33;;;;;;;18.17;77.28;100494.75;5110209;28;20052;-75
2022/10/11 02:24:50;;;;;;;135.75;33.95;;;;;;;18.13;77.34;100500.22;5111510;28;20420;-76
2022/10/11 02:27:23;;;;;;;119.22;30.40;;;;;;;17.97;77.34;100476.47;5107291;28;20052;-75
2022/10/11 02:29:52;;;;;;;83.95;30.83;;;;;;;17.99;77.14;100472.13;5111089;28;20409;-78
2022/10/11 02:32:20;;;;;;;137.73;32.35;;;;;;;18.13;77.30;100494.59;5106297;28;20047;-72
2022/10/11 02:34:53;;;;;;;210.40;35.70;;;;;;;18.14;77.17;100490.59;5103182;28;20055;-74
2022/10/11 02:37:26;;;;;;;168.48;31.23;;;;;;;18.16;77.19;100493.91;5105182;28;20054;-75
2022/10/11 02:40:16;;;;;;;255.57;39.67;;;;;;;18.12;77.28;100484.44;5103081;28;20044;-77
2022/10/11 02:42:48;;;;;;;180.50;35.28;;;;;;;18.02;77.22;100467.81;5106549;28;20047;-78
2022/10/11 02:45:20;;;;;;;242.63;42.85;;;;;;;18.13;77.18;100488.94;5101040;28;20074;-81
2022/10/11 02:47:47;;;;;;;195.55;38.67;;;;;;;18.13;77.37;100491.75;5099678;28;20059;-74
2022/10/11 02:50:14;;;;;;;221.73;34.85;;;;;;;18.09;77.06;100479.47;5105787;28;20058;-77
2022/10/11 02:52:41;;;;;;;178.02;35.10;;;;;;;18.06;77.19;100482.13;5102455;28;20047;-78
2022/10/11 02:55:09;;;;;;;275.33;40.15;;;;;;;17.93;77.21;100444.38;5100737;28;20052;-77
2022/10/11 02:57:36;;;;;;;151.07;35.72;;;;;;;17.92;77.23;100454.03;5103595;28;20036;-77
2022/10/11 03:00:04;;;;;;;84.88;32.08;;;;;;;18.07;77.32;100476.13;5097132;28;20411;-77
2022/10/11 03:02:31;;;;;;;78.10;27.23;;;;;;;17.92;77.08;100460.50;5106803;28;20048;-77
2022/10/11 03:04:58;;;;;;;129.60;30.88;;;;;;;18.03;76.89;100471.47;5105950;28;20054;-77
2022/10/11 03:07:24;;;;;;;152.88;35.17;;;;;;;17.93;76.99;100456.50;5101530;28;20040;-77
2022/10/11 03:09:51;;;;;;;97.70;30.45;;;;;;;17.84;76.84;100446.38;5099934;28;20066;-77
2022/10/11 03:12:18;;;;;;;101.07;27.65;;;;;;;18.08;76.98;100479.78;5101593;28;20117;-79
2022/10/11 03:14:45;;;;;;;78.43;28.02;;;;;;;18.06;77.13;100488.59;5102760;28;20048;-79
2022/10/11 03:17:11;;;;;;;66.85;28.98;;;;;;;18.12;76.79;100492.06;5103176;28;20054;-78
2022/10/11 03:19:58;;;;;;;89.25;30.70;;;;;;;18.09;76.72;100485.09;5113215;28;20048;-78
2022/10/11 03:22:25;;;;;;;80.80;30.23;;;;;;;18.18;76.80;100491.56;5103081;28;20048;-82
2022/10/11 03:24:52;;;;;;;82.65;28.73;;;;;;;18.14;76.87;100484.09;5105482;28;20138;-75
2022/10/11 03:27:19;;;;;;;139.05;32.78;;;;;;;17.94;77.03;100451.69;5106803;28;20051;-76
2022/10/11 03:29:45;;;;;;;107.93;29.48;;;;;;;18.21;77.11;100488.06;5101788;28;20455;-73
2022/10/11 03:32:12;;;;;;;147.65;35.25;;;;;;;18.15;77.03;100478.13;5095179;28;20063;-72
2022/10/11 03:34:39;;;;;;;155.38;32.75;;;;;;;18.27;76.88;100487.94;5108072;28;20054;-73
2022/10/11 03:37:06;;;;;;;102.97;27.25;;;;;;;18.23;76.67;100477.28;5105549;28;20044;-75
2022/10/11 03:39:32;;;;;;;134.68;31.05;;;;;;;18.16;76.96;100462.81;5097561;28;20063;-75
2022/10/11 03:42:02;;;;;;;222.10;38.53;;;;;;;18.20;76.74;100469.47;5098104;28;20055;-76
2022/10/11 03:44:35;;;;;;;228.57;38.63;;;;;;;18.10;77.02;100460.50;5104396;28;20504;-79
2022/10/11 03:47:08;;;;;;;182.23;31.90;;;;;;;18.12;77.21;100469.47;5106597;28;20048;-79
2022/10/11 03:49:38;;;;;;;171.07;32.10;;;;;;;18.18;77.07;100482.25;5110224;28;20050;-79
2022/10/11 03:52:10;;;;;;;177.02;34.25;;;;;;;18.07;77.07;100466.81;5111472;28;20051;-83
2022/10/11 03:54:36;;;;;;;142.35;29.70;;;;;;;18.09;76.99;100467.31;5114178;28;20051;-82
2022/10/11 03:57:03;;;;;;;168.52;31.05;;;;;;;17.99;77.14;100449.53;5099508;28;20040;-81
2022/10/11 03:59:30;;;;;;;122.68;27.98;;;;;;;18.11;76.88;100479.94;5101549;28;20048;-80
2022/10/11 04:01:59;;;;;;;145.20;33.03;;;;;;;18.06;77.01;100466.00;5104044;28;20164;-80
2022/10/11 04:04:26;;;;;;;146.43;30.67;;;;;;;18.01;76.73;100454.84;5107097;28;20052;-82
2022/10/11 04:06:52;;;;;;;101.95;28.27;;;;;;;18.05;76.85;100453.03;5109805;28;20497;-82
2022/10/11 04:09:19;;;;;;;70.80;26.52;;;;;;;18.09;76.66;100470.16;5102886;28;20056;-82
2022/10/11 04:11:46;;;;;;;60.92;26.00;;;;;;;17.92;76.44;100443.56;5106258;28;20521;-82
2022/10/11 04:14:13;;;;;;;77.13;26.70;;;;;;;18.06;76.50;100471.66;5105287;28;20063;-80
2022/10/11 04:16:40;;;;;;;109.38;28.42;;;;;;;17.86;76.74;100461.00;5104077;28;20039;-80
2022/10/11 04:19:07;;;;;;;119.90;28.35;;;;;;;17.88;76.75;100464.31;5093370;28;20595;-80
2022/10/11 04:21:34;;;;;;;92.68;27.65;;;;;;;17.93;76.44;100475.47;5101646;28;20051;-80
2022/10/11 04:24:01;;;;;;;146.40;29.77;;;;;;;17.86;76.31;100466.66;5103369;28;20059;-82
2022/10/11 04:26:28;;;;;;;150.50;28.42;;;;;;;17.97;76.42;100485.75;5105166;28;20048;-80
2022/10/11 04:28:54;;;;;;;139.57;29.20;;;;;;;17.97;76.74;100490.59;5109097;28;20044;-80
2022/10/11 04:31:22;;;;;;;166.38;31.27;;;;;;;17.91;76.24;100472.13;5108098;28;20505;-79
2022/10/11 04:33:49;;;;;;;231.70;32.22;;;;;;;17.96;76.34;100488.94;5102739;28;20048;-77
2022/10/11 04:36:15;;;;;;;147.90;28.35;;;;;;;17.86;76.29;100466.66;5112777;28;20047;-75
2022/10/11 04:38:42;;;;;;;187.98;33.40;;;;;;;17.87;76.52;100474.78;5112943;27;20058;-76
2022/10/11 04:41:12;;;;;;;125.07;26.92;;;;;;;17.85;76.59;100476.31;5108917;28;20048;-76
2022/10/11 04:43:39;;;;;;;91.47;24.35;;;;;;;17.85;76.48;100479.13;5108624;28;20043;-77
2022/10/11 04:46:06;;;;;;;155.77;25.02;;;;;;;17.92;76.55;100504.88;5105030;27;20047;-77
2022/10/11 04:48:34;;;;;;;160.85;25.67;;;;;;;17.89;76.51;100505.53;5103681;28;20100;-76
2022/10/11 04:51:01;;;;;;;122.88;23.80;;;;;;;17.66;76.43;100468.94;5098576;28;20052;-75
2022/10/11 04:53:28;;;;;;;136.10;23.98;;;;;;;17.73;76.39;100480.56;5099478;28;21063;-76
2022/10/11 04:55:57;;;;;;;62.50;20.40;;;;;;;17.82;76.26;100493.91;5105404;28;20138;-76
2022/10/11 04:58:24;;;;;;;86.18;21.25;;;;;;;17.87;76.48;100507.84;5108747;28;20331;-75
2022/10/11 05:00:51;;;;;;;51.75;19.27;;;;;;;17.90;76.13;100510.03;5103269;28;20052;-75
2022/10/11 05:03:18;;;;;;;49.55;19.65;;;;;;;17.89;76.24;100503.56;5110484;28;20521;-76
2022/10/11 05:05:44;;;;;;;37.03;19.63;;;;;;;17.80;76.30;100493.41;5100770;28;20388;-78
2022/10/11 05:08:11;;;;;;;42.65;18.95;;;;;;;17.81;76.03;100490.25;5101509;28;21219;-75
2022/10/11 05:10:38;;;;;;;52.17;21.65;;;;;;;17.86;76.33;100507.03;5108565;28;20044;-77
2022/10/11 05:13:05;;;;;;;37.47;20.30;;;;;;;17.80;76.06;100499.03;5102153;28;20516;-75
2022/10/11 05:15:32;;;;;;;34.70;20.63;;;;;;;17.87;75.97;100513.50;5097335;28;20418;-77
2022/10/11 05:17:59;;;;;;;35.10;19.63;;;;;;;17.86;76.24;100511.84;5107468;28;20047;-74
2022/10/11 05:20:26;;;;;;;30.48;19.67;;;;;;;17.82;75.74;100508.03;5110297;28;20082;-74
2022/10/11 05:22:53;;;;;;;21.83;19.15;;;;;;;17.79;76.04;100503.03;5108840;28;20051;-83
2022/10/11 05:25:20;;;;;;;25.52;18.38;;;;;;;17.80;75.92;100513.16;5110038;28;20048;-82
2022/10/11 05:27:47;;;;;;;21.30;18.05;;;;;;;17.71;75.81;100494.19;5100109;28;20044;-82
2022/10/11 05:30:14;;;;;;;22.50;18.02;;;;;;;17.84;75.58;100525.47;5100073;28;20117;-79
2022/10/11 05:32:41;;;;;;;27.08;18.40;;;;;;;17.83;75.66;100526.63;5103728;28;20048;-75
2022/10/11 05:35:08;;;;;;;26.08;18.60;;;;;;;17.65;75.50;100506.81;5109012;27;20059;-75
2022/10/11 05:37:35;;;;;;;22.17;17.75;;;;;;;17.72;75.32;100523.28;5109225;28;20048;-73
2022/10/11 05:40:02;;;;;;;73.38;20.98;;;;;;;17.68;75.21;100534.41;5108871;28;20551;-74
2022/10/11 05:42:29;;;;;;;108.13;22.20;;;;;;;17.48;75.54;100518.06;5096654;28;20048;-74
2022/10/11 05:44:56;;;;;;;121.95;26.00;;;;;;;17.47;75.52;100527.66;5100105;28;20048;-75
2022/10/11 05:47:23;;;;;;;114.10;28.35;;;;;;;17.49;75.47;100531.84;5105406;28;20047;-75
2022/10/11 05:49:49;;;;;;;112.03;27.13;;;;;;;17.45;75.68;100528.00;5109629;28;20051;-77
2022/10/11 05:52:20;;;;;;;165.07;26.95;;;;;;;17.51;75.91;100540.81;5107371;28;20039;-78
2022/10/11 05:54:47;;;;;;;183.20;26.63;;;;;;;17.46;75.67;100534.50;5105307;28;20054;-76
2022/10/11 05:57:15;;;;;;;236.75;28.27;;;;;;;17.48;75.66;100540.66;5100509;28;20047;-80
2022/10/11 05:59:42;;;;;;;259.77;30.05;;;;;;;17.45;76.14;100546.94;5098544;28;20410;-77
2022/10/11 06:02:12;;;;;;;255.65;28.23;;;;;;;17.38;75.78;100532.47;5096620;28;20055;-78
2022/10/11 06:04:39;;;;;;;293.13;32.25;;;;;;;17.44;76.19;100560.25;5100641;28;20044;-76
2022/10/11 06:07:07;;;;;;;251.73;33.28;;;;;;;17.36;75.80;100534.78;5102155;28;20524;-85
2022/10/11 06:09:34;;;;;;;298.83;28.77;;;;;;;17.22;75.88;100530.09;5102352;28;20047;-83
2022/10/11 06:12:01;;;;;;;237.80;29.33;;;;;;;17.26;75.99;100539.59;5095301;28;20051;-76
2022/10/11 06:14:28;;;;;;;213.88;30.00;;;;;;;17.22;76.15;100561.13;5102581;28;20047;-76
2022/10/11 06:16:55;;;;;;;195.27;25.00;;;;;;;17.14;75.85;100547.81;5099120;28;20751;-77
2022/10/11 06:19:22;;;;;;;219.38;30.48;;;;;;;17.02;75.82;100534.31;5106255;28;20062;-80
2022/10/11 06:21:49;;;;;;;242.65;25.48;;;;;;;17.17;76.03;100564.09;5105968;28;20051;-79
2022/10/11 06:24:16;;;;;;;239.65;27.58;;;;;;;17.13;75.54;100568.75;5102346;28;20123;-80
2022/10/11 06:26:43;;;;;;;22.70;20.02;;;;;;;17.07;75.58;100563.56;5104746;28;20044;-79
2022/10/11 06:29:09;;;;;;;27.15;22.20;;;;;;;17.10;75.84;100560.91;5097003;28;20048;-80
2022/10/11 06:31:36;;;;;;;26.75;18.67;;;;;;;17.12;75.46;100563.41;5096628;27;20086;-78
2022/10/11 06:34:03;;;;;;;23.73;19.23;;;;;;;17.09;75.71;100556.41;5102241;28;20059;-78
2022/10/11 06:36:30;;;;;;;26.02;17.67;;;;;;;17.13;75.63;100565.91;5095055;28;20055;-78
2022/10/11 06:38:59;;;;;;;26.80;18.00;;;;;;;17.05;75.92;100553.41;5100111;28;20892;-81
2022/10/11 06:41:29;;;;;;;22.13;18.83;;;;;;;17.05;75.74;100559.06;5102541;28;20394;-80
2022/10/11 06:43:56;;;;;;;22.33;18.48;;;;;;;17.06;75.76;100565.56;5105783;28;20048;-78
2022/10/11 06:46:25;;;;;;;24.13;18.25;;;;;;;17.03;75.49;100566.19;5102434;28;20051;-81
2022/10/11 06:48:52;;;;;;;23.52;18.98;;;;;;;17.02;75.72;100568.16;5097457;28;20044;-84
2022/10/11 06:51:21;;;;;;;24.00;17.27;;;;;;;17.01;75.57;100574.13;5100582;28;20047;-86
2022/10/11 06:53:49;;;;;;;20.63;18.20;;;;;;;16.99;75.74;100574.47;5099426;28;20046;-84
2022/10/11 06:56:18;;;;;;;19.98;17.83;;;;;;;16.99;75.32;100567.97;5096974;28;20052;-84
2022/10/11 06:58:45;;;;;;;24.02;18.40;;;;;;;16.96;75.51;100572.31;5094905;28;20044;-83
2022/10/11 07:01:17;;;;;;;23.15;21.02;;;;;;;16.95;75.30;100564.16;5100252;28;20059;-83
2022/10/11 07:03:44;;;;;;;24.50;20.98;;;;;;;16.74;75.47;100550.59;5100676;28;20076;-84
2022/10/11 07:06:14;;;;;;;21.75;17.98;;;;;;;16.87;75.57;100570.56;5100642;28;20055;-84
2022/10/11 07:08:40;;;;;;;20.20;17.67;;;;;;;16.87;75.83;100576.22;5106142;28;20063;-85
2022/10/11 07:11:09;;;;;;;17.67;15.95;;;;;;;16.88;75.67;100569.41;5106842;28;20063;-86
2022/10/11 07:13:37;;;;;;;21.52;17.52;;;;;;;17.17;76.07;100595.16;5106644;28;20502;-85
2022/10/11 07:16:06;;;;;;;20.23;16.52;;;;;;;17.20;76.29;100591.69;5097565;28;20048;-84
2022/10/11 07:18:33;;;;;;;20.77;16.83;;;;;;;17.32;75.89;100610.00;5111554;28;20043;-85
2022/10/11 07:21:10;;;;;;;26.38;17.80;;;;;;;17.39;76.27;100610.34;5106991;28;20063;-85
2022/10/11 07:23:37;;;;;;;21.83;18.52;;;;;;;17.40;76.40;100609.19;5107820;28;20048;-83
2022/10/11 07:26:05;;;;;;;25.83;16.90;;;;;;;17.44;76.49;100615.88;5106352;28;20052;-85
2022/10/11 07:28:34;;;;;;;23.50;17.10;;;;;;;17.43;76.44;100617.84;5099211;28;20082;-85
2022/10/11 07:31:09;;;;;;;26.73;17.95;;;;;;;17.51;76.52;100627.53;5107725;28;20374;-83
2022/10/11 07:33:35;;;;;;;24.85;16.25;;;;;;;17.60;76.61;100639.66;5118726;28;20056;-84
2022/10/11 07:36:03;;;;;;;19.50;15.82;;;;;;;17.67;76.42;100636.38;5101490;28;20055;-85
2022/10/11 07:38:31;;;;;;;37.05;21.45;;;;;;;17.79;76.64;100635.81;5109420;28;20525;-84
2022/10/11 07:40:58;;;;;;;25.48;17.95;;;;;;;17.79;76.45;100621.69;5107751;28;20099;-85
2022/10/11 07:43:25;;;;;;;25.02;21.80;;;;;;;17.76;76.64;100598.56;5106215;28;20502;-85
2022/10/11 07:45:54;;;;;;;21.33;18.58;;;;;;;18.18;76.54;100644.19;5107203;28;20063;-84
2022/10/11 07:48:21;;;;;;;23.47;16.97;;;;;;;18.42;76.65;100648.56;5106597;28;20079;-84
2022/10/11 07:50:48;;;;;;;23.45;18.15;;;;;;;18.47;76.51;100635.09;5102331;28;20051;-85
2022/10/11 07:53:15;;;;;;;23.15;17.90;;;;;;;18.60;76.69;100633.28;5104427;28;20044;-85
2022/10/11 07:55:42;;;;;;;29.75;21.00;;;;;;;18.86;76.60;100657.91;5106543;28;20052;-84
2022/10/11 07:58:10;;;;;;;21.02;18.27;;;;;;;18.89;76.90;100646.75;5113505;28;20044;-84
2022/10/11 08:00:41;;;;;;;24.40;18.50;;;;;;;19.08;76.72;100654.09;5109244;28;20051;-86
2022/10/11 08:03:09;;;;;;;22.40;18.48;;;;;;;19.14;77.50;100661.19;5113524;28;20051;-85
2022/10/11 08:05:37;;;;;;;22.50;20.55;;;;;;;19.49;77.66;100675.31;5107777;28;20073;-84
2022/10/11 08:08:04;;;;;;;20.38;17.70;;;;;;;19.54;77.75;100655.28;5121443;28;20044;-85
2022/10/11 08:10:37;;;;;;;17.50;15.30;;;;;;;19.89;77.30;100667.31;5122324;28;20066;-84
2022/10/11 08:13:04;;;;;;;16.95;15.15;;;;;;;20.24;77.78;100684.13;5110029;28;20414;-85
2022/10/11 08:15:31;;;;;;;16.02;14.57;;;;;;;20.47;77.69;100681.81;5097601;28;20490;-85
2022/10/11 08:17:58;;;;;;;15.27;13.85;;;;;;;20.61;77.95;100671.06;5106331;28;20060;-84
2022/10/11 08:20:26;;;;;;;13.93;12.68;;;;;;;21.11;77.91;100686.34;5111847;28;20060;-83
2022/10/11 08:22:54;;;;;;;17.15;14.35;;;;;;;21.40;77.04;100683.41;5113952;28;20051;-84
2022/10/11 08:25:20;;;;;;;23.15;18.38;;;;;;;21.64;77.10;100688.34;5106483;28;20051;-83
2022/10/11 08:27:47;;;;;;;22.33;20.02;;;;;;;21.86;76.57;100689.06;5104772;28;20070;-83
2022/10/11 08:30:14;;;;;;;19.02;17.17;;;;;;;21.97;76.07;100678.88;5109945;28;20047;-83
2022/10/11 08:32:41;;;;;;;20.30;17.77;;;;;;;22.24;75.11;100695.25;5105754;28;20055;-84
2022/10/11 08:35:08;;;;;;;19.33;15.48;;;;;;;22.51;74.37;100689.19;5100347;28;20052;-83
2022/10/11 08:37:34;;;;;;;16.13;14.50;;;;;;;22.90;73.44;100711.16;5110795;27;20047;-83
2022/10/11 08:40:02;;;;;;;17.45;15.80;;;;;;;23.11;72.30;100690.22;5104194;28;20055;-83
2022/10/11 08:42:47;;;;;;;83.63;46.28;;;;;;;23.34;72.05;100682.75;5104365;28;20074;-83
2022/10/11 08:45:30;;;;;;;99.82;63.90;;;;;;;23.79;71.25;100698.66;5102618;28;20051;-83
2022/10/11 08:48:14;;;;;;;87.40;52.33;;;;;;;24.20;70.74;100699.31;5104417;28;20040;-84
2022/10/11 08:50:45;;;;;;;97.15;53.10;;;;;;;24.76;69.07;100706.78;5105950;28;20043;-85
2022/10/11 08:53:52;;;;;;;124.40;73.57;;;;;;;25.14;69.16;100706.03;5099964;28;20052;-84
2022/10/11 08:56:21;;;;;;;32.78;19.42;;;;;;;25.49;67.43;100691.59;5103738;28;20047;-83
2022/10/11 08:59:00;;;;;;;71.72;48.33;;;;;;;26.04;67.10;100708.56;5111217;28;20047;-85
2022/10/11 09:01:29;;;;;;;126.07;76.95;;;;;;;26.32;65.90;100693.91;5111669;28;20493;-84
2022/10/11 09:03:58;;;;;;;57.50;35.53;;;;;;;26.73;64.85;100711.34;5111652;28;20055;-85
2022/10/11 09:06:28;;;;;;;31.95;20.77;;;;;;;27.09;64.63;100706.94;5102539;28;20056;-85
2022/10/11 09:08:55;;;;;;;22.08;12.80;;;;;;;27.46;63.58;100726.28;5109075;28;20040;-84
2022/10/11 09:11:45;;;;;;;18.05;11.80;;;;;;;27.81;63.05;100722.16;5103938;28;20059;-85
2022/10/11 09:14:18;;;;;;;26.95;17.02;;;;;;;28.20;62.49;100728.25;5105446;28;20113;-84
2022/10/11 09:17:20;;;;;;;28.45;19.58;;;;;;;28.44;62.03;100726.03;5110523;28;20047;-83
2022/10/11 09:20:12;;;;;;;23.98;17.92;;;;;;;28.62;61.73;100727.00;5112916;28;20101;-83
2022/10/11 09:23:17;;;;;;;14.15;9.43;;;;;;;28.88;61.33;100733.72;5100989;28;20047;-83
2022/10/11 09:25:57;;;;;;;9.55;8.60;;;;;;;29.18;60.10;100722.00;5096848;28;20047;-83
2022/10/11 09:28:44;;;;;;;8.70;6.38;;;;;;;29.46;59.14;100722.09;5109311;27;20509;-84
2022/10/11 09:31:11;;;;;;;9.43;7.22;;;;;;;29.73;58.06;100739.06;5110216;28;20067;-84
2022/10/11 09:33:50;;;;;;;9.70;6.63;;;;;;;29.88;58.18;100714.00;5101307;28;20048;-83
2022/10/11 09:36:26;;;;;;;6.97;5.00;;;;;;;30.22;57.35;100717.34;5107118;28;20502;-83
2022/10/11 09:39:04;;;;;;;6.50;3.97;;;;;;;30.17;57.10;100717.75;5108848;28;20410;-83
2022/10/11 09:41:37;;;;;;;5.10;3.85;;;;;;;30.11;55.75;100725.13;5117471;27;20131;-83
2022/10/11 09:44:06;;;;;;;8.55;6.25;;;;;;;30.43;53.57;100717.38;5103346;28;20078;-84
2022/10/11 09:46:33;;;;;;;;;;;;;;;30.41;57.44;100714.06;5102890;28;20080;-83
2022/10/11 09:49:06;;;;;;;4.20;3.03;;;;;;;30.55;52.55;100684.41;5101336;28;19924;-84
2022/10/11 09:51:33;;;;;;;5.25;3.50;;;;;;;30.86;50.87;100717.31;5109207;28;20433;-84
2022/10/11 09:54:03;;;;;;;12.82;7.63;;;;;;;31.00;50.03;100692.53;5108980;28;20051;-84
2022/10/11 09:56:33;;;;;;;9.60;4.80;;;;;;;31.07;49.53;100713.53;5111130;28;20054;-84
2022/10/11 09:59:19;;;;;;;4.53;3.25;;;;;;;31.26;48.77;100720.06;5108436;28;20048;-83
2022/10/11 10:01:47;;;;;;;9.00;5.65;;;;;;;31.53;48.13;100714.59;5104736;28;20052;-83
2022/10/11 10:04:15;;;;;;;7.10;4.07;;;;;;;31.85;47.21;100703.66;5112649;28;20128;-85
2022/10/11 10:06:42;;;;;;;7.53;5.43;;;;;;;32.14;46.46;100708.44;5105393;28;20048;-84
2022/10/11 10:09:29;;;;;;;6.38;3.85;;;;;;;32.31;46.67;100705.41;5103824;28;20402;-84
2022/10/11 10:11:57;;;;;;;8.07;3.17;;;;;;;32.45;45.43;100713.16;5099478;28;20051;-85
2022/10/11 10:14:27;;;;;;;3.88;2.63;;;;;;;32.67;44.46;100704.25;5106356;28;20044;-84
2022/10/11 10:17:01;;;;;;;7.78;7.28;;;;;;;32.58;43.80;100670.06;5103650;28;20074;-83
2022/10/11 10:19:46;;;;;;;5.78;5.15;;;;;;;32.82;42.71;100687.56;5092502;28;20553;-83
2022/10/11 10:22:27;;;;;;;4.35;2.17;;;;;;;32.68;43.49;100686.47;5107116;28;20052;-84
2022/10/11 10:24:55;;;;;;;5.93;2.10;;;;;;;32.85;42.80;100712.75;5099701;28;20406;-82
2022/10/11 10:27:24;;;;;;;2.88;1.65;;;;;;;33.01;42.34;100713.81;5111804;28;20055;-82
2022/10/11 10:30:07;;;;;;;2.63;1.90;;;;;;;33.30;42.49;100715.53;5102074;28;20073;-82
2022/10/11 10:32:55;;;;;;;10.55;2.42;;;;;;;33.34;41.82;100713.44;5111582;28;20056;-82
2022/10/11 10:35:43;;;;;;;2.13;1.75;;;;;;;33.06;41.57;100709.66;5096996;28;20147;-84
2022/10/11 10:38:13;;;;;;;2.30;2.10;;;;;;;33.02;41.29;100714.63;5101493;28;20044;-83
2022/10/11 10:40:57;;;;;;;3.75;2.08;;;;;;;33.12;41.50;100698.41;5110171;28;20047;-83
2022/10/11 10:43:28;;;;;;;4.20;2.85;;;;;;;33.62;40.37;100715.97;5109203;28;20051;-83
2022/10/11 10:46:23;;;;;;;3.63;2.90;;;;;;;33.96;40.34;100715.84;5107750;28;20070;-84
2022/10/11 10:49:17;;;;;;;4.30;3.22;;;;;;;34.18;39.86;100719.25;5105655;28;20485;-84
2022/10/11 10:52:40;;;;;;;6.20;2.72;;;;;;;34.33;40.50;100699.56;5111526;28;20043;-84
2022/10/11 10:55:32;;;;;;;3.75;2.92;;;;;;;34.55;40.15;100710.78;5099967;28;20508;-81
2022/10/11 10:58:20;;;;;;;7.13;4.28;;;;;;;34.46;39.47;100691.00;5100468;28;20055;-85
2022/10/11 11:00:50;;;;;;;6.53;4.25;;;;;;;34.79;38.50;100665.16;5102981;28;20051;-83
2022/10/11 11:03:44;;;;;;;6.70;4.78;;;;;;;35.53;38.46;100703.44;5097817;28;20052;-84
2022/10/11 11:06:30;;;;;;;7.88;3.85;;;;;;;35.99;36.49;100660.81;5103670;28;20056;-83
2022/10/11 11:09:05;;;;;;;7.15;3.75;;;;;;;36.45;36.01;100714.09;5108188;28;20058;-83
2022/10/11 11:11:35;;;;;;;10.60;6.28;;;;;;;36.61;35.74;100690.00;5103527;28;20062;-83
2022/10/11 11:14:07;;;;;;;9.23;4.57;;;;;;;36.68;35.52;100709.34;5102449;28;20082;-83
2022/10/11 11:16:59;;;;;;;5.95;3.63;;;;;;;36.77;34.86;100697.88;5109406;28;20512;-83
2022/10/11 11:19:36;;;;;;;5.50;3.35;;;;;;;36.94;35.11;100689.94;5104163;28;20052;-83
2022/10/11 11:22:03;;;;;;;5.40;3.03;;;;;;;37.30;34.39;100707.19;5103494;28;20070;-84
2022/10/11 11:24:39;;;;;;;5.32;3.15;;;;;;;37.49;33.92;100702.47;5103985;28;20522;-77
2022/10/11 11:27:09;;;;;;;7.88;4.18;;;;;;;37.77;33.29;100683.25;5108320;28;20064;-76
2022/10/11 11:30:00;;;;;;;12.15;7.93;;;;;;;38.08;33.17;100685.63;5107361;28;20055;-77